createdAt,value
2017-09-19T00:00:49.342Z,8.00
2017-09-19T00:03:15.510Z,8.00
2017-09-19T00:05:42.430Z,8.00
2017-09-19T00:08:08.606Z,8.00
2017-09-19T00:10:34.795Z,8.00
2017-09-19T00:13:01.761Z,8.10
2017-09-19T00:15:28.668Z,8.00
2017-09-19T00:17:54.833Z,8.00
2017-09-19T00:20:21.772Z,8.00
2017-09-19T00:22:48.681Z,8.00
2017-09-19T00:25:14.843Z,8.00
2017-09-19T00:27:42.084Z,7.90
2017-09-19T00:30:09.736Z,7.80
2017-09-19T00:32:35.934Z,7.80
2017-09-19T00:35:02.100Z,7.90
2017-09-19T00:37:29.232Z,7.90
2017-09-19T00:39:55.412Z,7.80
2017-09-19T00:42:21.624Z,7.80
2017-09-19T00:44:48.538Z,7.80
2017-09-19T00:47:14.807Z,7.70
2017-09-19T00:49:40.993Z,7.80
2017-09-19T00:52:07.142Z,7.70
2017-09-19T00:54:34.064Z,7.60
2017-09-19T00:57:00.244Z,7.60
2017-09-19T00:59:26.443Z,7.60
2017-09-19T01:01:53.365Z,7.60
2017-09-19T01:04:19.551Z,7.50
2017-09-19T01:06:45.738Z,7.60
2017-09-19T01:09:11.907Z,7.60
2017-09-19T01:11:38.110Z,7.60
2017-09-19T01:14:05.027Z,7.60
2017-09-19T01:16:31.191Z,7.50
2017-09-19T01:18:57.372Z,7.60
2017-09-19T01:21:23.623Z,7.50
2017-09-19T01:23:50.555Z,7.50
2017-09-19T01:26:17.591Z,7.40
2017-09-19T01:28:43.753Z,7.50
2017-09-19T01:31:10.674Z,7.40
2017-09-19T01:33:36.913Z,7.40
2017-09-19T01:36:03.121Z,7.40
2017-09-19T01:38:29.323Z,7.30
2017-09-19T01:40:55.501Z,7.30
2017-09-19T01:43:21.684Z,7.20
2017-09-19T01:45:47.867Z,7.20
2017-09-19T01:48:14.848Z,7.00
2017-09-19T01:50:41.024Z,7.00
2017-09-19T01:53:07.175Z,7.00
2017-09-19T01:55:34.084Z,7.00
2017-09-19T01:58:00.239Z,7.00
2017-09-19T02:00:27.180Z,7.10
2017-09-19T02:02:54.082Z,7.10
2017-09-19T02:05:20.256Z,7.10
2017-09-19T02:07:47.192Z,6.90
2017-09-19T02:10:13.389Z,6.90
2017-09-19T02:12:39.566Z,6.90
2017-09-19T02:15:06.493Z,6.80
2017-09-19T02:17:32.638Z,6.80
2017-09-19T02:19:59.583Z,6.90
2017-09-19T02:22:27.487Z,6.90
2017-09-19T02:24:53.675Z,6.80
2017-09-19T02:27:20.613Z,6.80
2017-09-19T02:29:47.534Z,6.80
2017-09-19T02:32:13.949Z,6.80
2017-09-19T02:34:40.141Z,6.80
2017-09-19T02:37:06.299Z,6.80
2017-09-19T02:39:32.496Z,6.80
2017-09-19T02:41:58.691Z,6.80
2017-09-19T02:44:25.603Z,6.80
2017-09-19T02:46:51.799Z,6.80
2017-09-19T02:49:17.993Z,6.80
2017-09-19T02:51:44.141Z,6.80
2017-09-19T02:54:11.057Z,6.80
2017-09-19T02:56:37.220Z,6.80
2017-09-19T02:59:03.417Z,6.70
2017-09-19T03:01:29.587Z,6.70
2017-09-19T03:03:55.789Z,6.70
2017-09-19T03:06:22.738Z,6.70
2017-09-19T03:08:49.677Z,6.80
2017-09-19T03:11:17.566Z,6.70
2017-09-19T03:13:43.800Z,6.70
2017-09-19T03:16:09.982Z,6.70
2017-09-19T03:18:37.635Z,6.60
2017-09-19T03:21:03.872Z,6.60
2017-09-19T03:23:30.053Z,6.60
2017-09-19T03:25:56.234Z,6.60
2017-09-19T03:28:22.397Z,6.60
2017-09-19T03:30:48.573Z,6.60
2017-09-19T03:33:14.764Z,6.60
2017-09-19T03:35:40.972Z,6.50
2017-09-19T03:38:07.142Z,6.50
2017-09-19T03:40:33.310Z,6.50
2017-09-19T03:42:59.486Z,6.50
2017-09-19T03:45:25.673Z,6.50
2017-09-19T03:47:52.586Z,6.40
2017-09-19T03:50:18.762Z,6.40
2017-09-19T03:52:44.918Z,6.40
2017-09-19T03:55:11.095Z,6.40
2017-09-19T03:57:38.027Z,6.40
2017-09-19T04:00:04.202Z,6.40
2017-09-19T04:02:30.419Z,6.40
2017-09-19T04:04:56.592Z,6.40
2017-09-19T04:07:22.747Z,6.40
2017-09-19T04:09:48.961Z,6.40
2017-09-19T04:12:15.099Z,6.40
2017-09-19T04:14:42.940Z,6.30
2017-09-19T04:17:09.128Z,6.30
2017-09-19T04:19:35.305Z,6.20
2017-09-19T04:22:01.487Z,6.30
2017-09-19T04:24:27.664Z,6.30
2017-09-19T04:26:53.847Z,6.30
2017-09-19T04:29:20.066Z,6.30
2017-09-19T04:31:46.276Z,6.20
2017-09-19T04:34:13.187Z,6.20
2017-09-19T04:36:39.371Z,6.20
2017-09-19T04:39:05.591Z,6.20
2017-09-19T04:41:32.506Z,6.10
2017-09-19T04:43:58.729Z,6.10
2017-09-19T04:46:24.912Z,6.00
2017-09-19T04:48:51.116Z,6.10
2017-09-19T04:51:17.314Z,6.10
2017-09-19T04:53:43.508Z,6.20
2017-09-19T04:56:09.716Z,6.20
2017-09-19T04:58:35.911Z,6.30
2017-09-19T05:01:02.928Z,6.20
2017-09-19T05:03:29.103Z,6.20
2017-09-19T05:05:56.034Z,6.20
2017-09-19T05:08:22.984Z,6.30
2017-09-19T05:10:49.909Z,6.30
2017-09-19T05:13:16.095Z,6.20
2017-09-19T05:15:42.329Z,6.30
2017-09-19T05:18:08.489Z,6.30
2017-09-19T05:20:34.668Z,6.30
2017-09-19T05:23:00.875Z,6.40
2017-09-19T05:25:27.818Z,6.60
2017-09-19T05:27:54.759Z,6.60
2017-09-19T05:30:21.711Z,6.70
2017-09-19T05:32:48.648Z,6.60
2017-09-19T05:35:15.596Z,6.70
2017-09-19T05:37:42.521Z,6.80
2017-09-19T05:40:08.716Z,6.80
2017-09-19T05:42:34.874Z,6.80
2017-09-19T05:45:01.038Z,6.80
2017-09-19T05:47:27.206Z,7.00
2017-09-19T05:49:53.398Z,7.00
2017-09-19T05:52:19.567Z,7.10
2017-09-19T05:54:45.761Z,7.10
2017-09-19T05:57:11.938Z,7.20
2017-09-19T05:59:38.200Z,7.20
2017-09-19T06:02:04.392Z,7.20
2017-09-19T06:04:30.594Z,7.30
2017-09-19T06:06:56.790Z,7.30
2017-09-19T06:09:31.088Z,7.40
2017-09-19T06:11:58.060Z,7.50
2017-09-19T06:14:24.258Z,7.50
2017-09-19T06:16:50.508Z,7.40
2017-09-19T06:19:17.479Z,7.40
2017-09-19T06:21:43.681Z,7.40
2017-09-19T06:24:10.602Z,7.50
2017-09-19T06:26:36.800Z,7.50
2017-09-19T06:29:03.013Z,7.80
2017-09-19T06:31:29.220Z,8.00
2017-09-19T06:33:55.404Z,8.10
2017-09-19T06:36:21.594Z,8.20
2017-09-19T06:38:47.779Z,8.30
2017-09-19T06:41:14.686Z,8.40
2017-09-19T06:43:40.879Z,8.40
2017-09-19T06:46:07.050Z,8.70
2017-09-19T06:48:33.206Z,8.90
2017-09-19T06:50:59.393Z,9.20
2017-09-19T06:53:25.603Z,9.30
2017-09-19T06:55:51.766Z,9.40
2017-09-19T06:58:17.943Z,9.50
2017-09-19T07:00:51.284Z,9.80
2017-09-19T07:03:17.476Z,9.90
2017-09-19T07:05:43.691Z,10.00
2017-09-19T07:08:09.852Z,10.20
2017-09-19T07:10:36.033Z,10.30
2017-09-19T07:13:03.002Z,10.40
2017-09-19T07:15:29.566Z,10.30
2017-09-19T07:17:55.806Z,10.20
2017-09-19T07:20:22.028Z,10.10
2017-09-19T07:22:48.255Z,10.30
2017-09-19T07:25:14.541Z,10.40
2017-09-19T07:27:41.585Z,10.80
2017-09-19T07:30:07.849Z,10.80
2017-09-19T07:32:34.162Z,10.90
2017-09-19T07:35:00.483Z,11.30
2017-09-19T07:37:26.722Z,11.10
2017-09-19T07:39:52.959Z,11.30
2017-09-19T07:42:19.314Z,11.30
2017-09-19T07:44:45.573Z,11.10
2017-09-19T07:47:12.557Z,11.20
2017-09-19T07:49:38.785Z,11.20
2017-09-19T07:52:04.999Z,11.30
2017-09-19T07:54:31.946Z,11.70
2017-09-19T07:56:58.860Z,12.00
2017-09-19T07:59:25.107Z,12.00
2017-09-19T08:01:52.063Z,12.50
2017-09-19T08:04:19.672Z,12.70
2017-09-19T08:06:45.836Z,12.60
2017-09-19T08:09:12.066Z,12.80
2017-09-19T08:11:39.054Z,13.00
2017-09-19T08:14:05.374Z,13.00
2017-09-19T08:16:31.728Z,12.90
2017-09-19T08:18:57.942Z,12.80
2017-09-19T08:21:24.783Z,13.00
2017-09-19T08:23:51.006Z,13.40
2017-09-19T08:26:17.198Z,13.20
2017-09-19T08:28:43.404Z,13.30
2017-09-19T08:31:10.167Z,13.40
2017-09-19T08:33:36.336Z,13.70
2017-09-19T08:36:02.496Z,13.90
2017-09-19T08:38:28.758Z,14.00
2017-09-19T08:40:55.703Z,14.20
2017-09-19T08:43:22.604Z,14.00
2017-09-19T08:45:48.836Z,14.00
2017-09-19T08:48:15.007Z,14.40
2017-09-19T08:50:41.944Z,14.40
2017-09-19T08:53:08.133Z,14.40
2017-09-19T08:55:34.303Z,14.40
2017-09-19T08:58:00.530Z,14.50
2017-09-19T09:00:26.783Z,14.70
2017-09-19T09:02:53.724Z,15.00
2017-09-19T09:05:20.626Z,15.10
2017-09-19T09:07:46.807Z,15.00
2017-09-19T09:10:12.947Z,15.00
2017-09-19T09:12:39.141Z,15.40
2017-09-19T09:15:06.071Z,14.90
2017-09-19T09:17:32.244Z,14.90
2017-09-19T09:19:58.431Z,14.60
2017-09-19T09:22:25.344Z,15.40
2017-09-19T09:24:51.499Z,15.40
2017-09-19T09:27:17.679Z,15.80
2017-09-19T09:29:43.879Z,16.10
2017-09-19T09:32:10.872Z,16.20
2017-09-19T09:34:37.085Z,16.20
2017-09-19T09:37:03.311Z,16.20
2017-09-19T09:39:29.563Z,16.60
2017-09-19T09:41:55.746Z,16.90
2017-09-19T09:44:21.986Z,17.20
2017-09-19T09:46:48.146Z,17.30
2017-09-19T09:49:14.300Z,16.80
2017-09-19T09:51:40.488Z,16.80
2017-09-19T09:54:06.685Z,17.20
2017-09-19T09:56:32.912Z,17.70
2017-09-19T09:58:59.844Z,17.90
2017-09-19T10:01:26.776Z,17.80
2017-09-19T10:03:53.709Z,18.00
2017-09-19T10:06:20.015Z,17.90
2017-09-19T10:08:47.087Z,17.90
2017-09-19T10:11:13.247Z,17.30
2017-09-19T10:13:40.177Z,17.80
2017-09-19T10:16:06.404Z,17.80
2017-09-19T10:18:34.065Z,17.90
2017-09-19T10:21:01.757Z,18.10
2017-09-19T10:23:27.920Z,18.10
2017-09-19T10:25:54.066Z,18.60
2017-09-19T10:28:20.797Z,18.40
2017-09-19T10:30:46.951Z,19.20
2017-09-19T10:33:13.839Z,19.30
2017-09-19T10:35:40.000Z,19.30
2017-09-19T10:38:06.161Z,19.20
2017-09-19T10:40:33.063Z,19.00
2017-09-19T10:42:59.291Z,19.00
2017-09-19T10:45:25.447Z,18.80
2017-09-19T10:47:52.388Z,19.30
2017-09-19T10:50:25.707Z,19.30
2017-09-19T10:52:52.667Z,18.40
2017-09-19T10:55:18.835Z,18.40
2017-09-19T10:57:45.047Z,18.70
2017-09-19T11:00:11.228Z,19.40
2017-09-19T11:02:38.111Z,19.30
2017-09-19T11:05:04.281Z,19.30
2017-09-19T11:07:30.480Z,19.00
2017-09-19T11:09:56.627Z,18.40
2017-09-19T11:12:22.791Z,18.00
2017-09-19T11:14:49.717Z,19.50
2017-09-19T11:17:15.881Z,19.60
2017-09-19T11:19:42.076Z,20.10
2017-09-19T11:22:08.974Z,20.10
2017-09-19T11:24:35.142Z,20.10
2017-09-19T11:27:02.816Z,20.10
2017-09-19T11:29:30.530Z,19.80
2017-09-19T11:31:56.712Z,19.80
2017-09-19T11:34:23.628Z,21.20
2017-09-19T11:36:49.798Z,21.10
2017-09-19T11:39:15.994Z,20.90
2017-09-19T11:41:42.940Z,21.20
2017-09-19T11:44:09.145Z,21.20
2017-09-19T11:46:36.270Z,21.40
2017-09-19T11:49:03.250Z,21.50
2017-09-19T11:51:29.535Z,21.80
2017-09-19T11:53:55.733Z,21.10
2017-09-19T11:56:22.709Z,21.60
2017-09-19T11:58:48.933Z,21.60
2017-09-19T12:01:15.139Z,22.00
2017-09-19T12:03:42.090Z,21.70
2017-09-19T12:06:09.051Z,22.50
2017-09-19T12:08:35.257Z,22.50
2017-09-19T12:11:01.527Z,23.50
2017-09-19T12:13:27.680Z,24.70
2017-09-19T12:15:53.843Z,26.40
2017-09-19T12:18:20.006Z,27.50
2017-09-19T12:20:46.180Z,28.20
2017-09-19T12:23:12.344Z,30.10
2017-09-19T12:25:38.539Z,31.90
2017-09-19T12:28:04.712Z,32.20
2017-09-19T12:30:30.908Z,28.80
2017-09-19T12:32:57.822Z,24.80
2017-09-19T12:35:23.984Z,24.70
2017-09-19T12:37:50.918Z,22.80
2017-09-19T12:40:17.108Z,22.80
2017-09-19T12:42:43.272Z,23.00
2017-09-19T12:45:09.434Z,22.40
2017-09-19T12:47:35.618Z,21.80
2017-09-19T12:50:01.790Z,21.40
2017-09-19T12:52:27.975Z,21.30
2017-09-19T12:54:54.158Z,21.10
2017-09-19T12:57:20.346Z,21.10
2017-09-19T12:59:47.259Z,21.40
2017-09-19T13:02:13.430Z,21.40
2017-09-19T13:04:40.361Z,25.60
2017-09-19T13:07:06.547Z,25.60
2017-09-19T13:09:32.743Z,28.90
2017-09-19T13:11:58.899Z,31.40
2017-09-19T13:14:25.095Z,32.70
2017-09-19T13:16:51.284Z,33.50
2017-09-19T13:19:17.468Z,33.10
2017-09-19T13:21:43.731Z,33.40
2017-09-19T13:24:09.887Z,34.10
2017-09-19T13:26:36.811Z,33.80
2017-09-19T13:29:02.987Z,33.80
2017-09-19T13:31:42.373Z,27.30
2017-09-19T13:34:08.561Z,27.20
2017-09-19T13:36:34.743Z,27.10
2017-09-19T13:39:00.917Z,26.80
2017-09-19T13:41:27.105Z,26.10
2017-09-19T13:43:53.356Z,24.80
2017-09-19T13:46:20.313Z,23.50
2017-09-19T13:48:46.491Z,23.50
2017-09-19T13:51:12.834Z,23.20
2017-09-19T13:53:39.037Z,23.20
2017-09-19T13:56:05.237Z,24.00
2017-09-19T13:58:31.498Z,24.40
2017-09-19T14:00:57.683Z,25.00
2017-09-19T14:03:23.874Z,26.70
2017-09-19T14:05:50.076Z,27.50
2017-09-19T14:08:16.368Z,26.80
2017-09-19T14:10:42.563Z,28.00
2017-09-19T14:13:08.770Z,30.40
2017-09-19T14:15:34.980Z,31.50
2017-09-19T14:18:01.184Z,31.00
2017-09-19T14:20:27.371Z,29.50
2017-09-19T14:22:53.564Z,30.60
2017-09-19T14:25:19.758Z,30.40
2017-09-19T14:27:45.952Z,29.10
2017-09-19T14:30:12.122Z,26.40
2017-09-19T14:32:38.278Z,24.50
2017-09-19T14:35:04.475Z,24.00
2017-09-19T14:37:30.648Z,26.70
2017-09-19T14:39:56.842Z,27.10
2017-09-19T14:42:23.048Z,26.80
2017-09-19T14:44:49.971Z,26.40
2017-09-19T14:47:16.164Z,26.40
2017-09-19T14:49:42.368Z,25.80
2017-09-19T14:52:08.525Z,25.10
2017-09-19T14:54:34.712Z,24.90
2017-09-19T14:57:00.912Z,25.10
2017-09-19T14:59:27.078Z,24.00
2017-09-19T15:01:53.370Z,22.70
2017-09-19T15:04:20.360Z,22.00
2017-09-19T15:06:46.572Z,21.90
2017-09-19T15:09:12.848Z,22.10
2017-09-19T15:11:39.084Z,22.10
2017-09-19T15:14:05.315Z,24.10
2017-09-19T15:16:31.515Z,24.90
2017-09-19T15:18:57.742Z,24.80
2017-09-19T15:21:23.978Z,23.90
2017-09-19T15:23:50.210Z,22.90
2017-09-19T15:26:16.425Z,22.10
2017-09-19T15:28:42.588Z,22.10
2017-09-19T15:31:08.764Z,21.40
2017-09-19T15:33:34.963Z,21.50
2017-09-19T15:36:01.154Z,21.80
2017-09-19T15:38:27.416Z,24.50
2017-09-19T15:40:53.711Z,26.90
2017-09-19T15:43:19.962Z,28.70
2017-09-19T15:45:46.159Z,30.50
2017-09-19T15:48:12.382Z,30.50
2017-09-19T15:50:38.592Z,30.30
2017-09-19T15:53:04.800Z,28.30
2017-09-19T15:55:31.747Z,23.90
2017-09-19T15:57:58.766Z,22.70
2017-09-19T16:00:24.955Z,22.70
2017-09-19T16:02:51.152Z,22.00
2017-09-19T16:05:17.353Z,21.50
2017-09-19T16:07:43.689Z,20.90
2017-09-19T16:10:16.944Z,20.30
2017-09-19T16:12:43.139Z,20.20
2017-09-19T16:15:10.109Z,19.60
2017-09-19T16:17:36.314Z,19.60
2017-09-19T16:20:03.241Z,18.80
2017-09-19T16:22:29.472Z,18.80
2017-09-19T16:24:55.889Z,18.60
2017-09-19T16:27:22.039Z,18.30
2017-09-19T16:29:48.265Z,18.30
2017-09-19T16:32:15.169Z,17.80
2017-09-19T16:34:41.377Z,17.80
2017-09-19T16:37:07.587Z,17.70
2017-09-19T16:39:33.823Z,17.50
2017-09-19T16:42:00.004Z,17.30
2017-09-19T16:44:26.548Z,17.10
2017-09-19T16:46:52.811Z,16.90
2017-09-19T16:49:19.009Z,16.70
2017-09-19T16:51:45.271Z,16.50
2017-09-19T16:54:12.192Z,16.10
2017-09-19T16:56:39.147Z,16.00
2017-09-19T16:59:06.068Z,15.90
2017-09-19T17:01:33.727Z,15.60
2017-09-19T17:03:59.947Z,15.60
2017-09-19T17:06:26.185Z,15.40
2017-09-19T17:08:52.360Z,15.30
2017-09-19T17:11:18.570Z,15.10
2017-09-19T17:13:45.536Z,14.90
2017-09-19T17:16:11.713Z,14.90
2017-09-19T17:18:37.938Z,14.80
2017-09-19T17:21:04.162Z,14.70
2017-09-19T17:23:30.341Z,14.50
2017-09-19T17:25:56.558Z,14.40
2017-09-19T17:28:22.946Z,14.30
2017-09-19T17:30:49.157Z,14.20
2017-09-19T17:33:15.335Z,14.10
2017-09-19T17:35:42.316Z,13.90
2017-09-19T17:38:08.546Z,13.90
2017-09-19T17:40:34.774Z,13.90
2017-09-19T17:43:00.986Z,13.80
2017-09-19T17:45:27.175Z,13.70
2017-09-19T17:47:53.331Z,13.70
2017-09-19T17:50:19.526Z,13.70
2017-09-19T17:52:45.691Z,13.70
2017-09-19T17:55:12.703Z,13.50
2017-09-19T17:57:38.948Z,13.50
2017-09-19T18:00:05.167Z,13.50
2017-09-19T18:02:31.983Z,13.50
2017-09-19T18:04:58.215Z,13.50
2017-09-19T18:07:24.405Z,13.40
2017-09-19T18:09:50.573Z,13.50
2017-09-19T18:12:16.789Z,13.30
2017-09-19T18:14:42.994Z,13.30
2017-09-19T18:17:09.206Z,13.30
2017-09-19T18:19:36.168Z,13.10
2017-09-19T18:22:02.380Z,13.10
2017-09-19T18:24:29.341Z,13.00
2017-09-19T18:26:55.552Z,13.00
2017-09-19T18:29:22.609Z,12.90
2017-09-19T18:31:48.979Z,12.90
2017-09-19T18:34:15.164Z,12.90
2017-09-19T18:36:42.142Z,12.80
2017-09-19T18:39:08.407Z,12.80
2017-09-19T18:41:34.689Z,12.70
2017-09-19T18:44:00.956Z,12.70
2017-09-19T18:46:27.211Z,12.70
2017-09-19T18:48:54.981Z,12.60
2017-09-19T18:51:21.964Z,12.50
2017-09-19T18:53:48.143Z,12.50
2017-09-19T18:56:14.417Z,12.30
2017-09-19T18:58:40.651Z,12.20
2017-09-19T19:01:06.883Z,12.10
2017-09-19T19:03:33.720Z,12.00
2017-09-19T19:06:00.069Z,11.90
2017-09-19T19:08:26.247Z,11.90
2017-09-19T19:10:53.170Z,11.70
2017-09-19T19:13:19.387Z,11.70
2017-09-19T19:15:45.543Z,11.50
2017-09-19T19:18:11.726Z,11.40
2017-09-19T19:20:37.938Z,11.30
2017-09-19T19:23:04.152Z,11.40
2017-09-19T19:25:30.357Z,11.50
2017-09-19T19:27:56.595Z,11.50
2017-09-19T19:30:23.650Z,11.50
2017-09-19T19:32:49.877Z,11.50
2017-09-19T19:35:16.289Z,11.50
2017-09-19T19:37:42.495Z,11.40
2017-09-19T19:40:08.665Z,11.40
2017-09-19T19:42:35.576Z,11.40
2017-09-19T19:45:01.782Z,11.40
2017-09-19T19:47:27.980Z,11.40
2017-09-19T19:49:54.178Z,11.40
2017-09-19T19:52:21.843Z,11.30
2017-09-19T19:54:48.050Z,11.30
2017-09-19T19:57:14.251Z,11.30
2017-09-19T19:59:40.454Z,11.30
2017-09-19T20:02:06.714Z,11.30
2017-09-19T20:04:32.906Z,11.30
2017-09-19T20:06:59.133Z,11.30
2017-09-19T20:09:25.341Z,11.40
2017-09-19T20:11:51.529Z,11.40
2017-09-19T20:14:17.878Z,11.40
2017-09-19T20:16:44.054Z,11.40
2017-09-19T20:19:10.239Z,11.40
2017-09-19T20:21:36.592Z,11.50
2017-09-19T20:24:02.870Z,11.50
2017-09-19T20:26:29.313Z,11.40
2017-09-19T20:28:55.538Z,11.40
2017-09-19T20:31:21.840Z,11.30
2017-09-19T20:33:48.064Z,11.20
2017-09-19T20:36:14.255Z,11.10
2017-09-19T20:38:40.495Z,11.10
2017-09-19T20:41:06.766Z,11.10
2017-09-19T20:43:32.953Z,11.00
2017-09-19T20:45:59.226Z,11.00
2017-09-19T20:48:25.415Z,11.00
2017-09-19T20:50:51.599Z,11.00
2017-09-19T20:53:17.855Z,11.10
2017-09-19T20:55:44.058Z,11.10
2017-09-19T20:58:10.293Z,11.10
2017-09-19T21:00:36.446Z,11.00
2017-09-19T21:03:02.783Z,10.90
2017-09-19T21:05:35.830Z,10.80
2017-09-19T21:08:08.301Z,10.80
2017-09-19T21:10:40.718Z,10.80
2017-09-19T21:13:13.256Z,10.80
2017-09-19T21:15:45.708Z,10.80
2017-09-19T21:18:18.140Z,10.70
2017-09-19T21:20:44.377Z,10.70
2017-09-19T21:23:10.651Z,10.70
2017-09-19T21:25:36.921Z,10.70
2017-09-19T21:28:03.205Z,10.60
2017-09-19T21:30:29.387Z,10.60
2017-09-19T21:32:55.591Z,10.60
2017-09-19T21:35:22.403Z,10.60
2017-09-19T21:37:48.620Z,10.60
2017-09-19T21:40:14.801Z,10.60
2017-09-19T21:42:41.261Z,10.60
2017-09-19T21:45:08.256Z,10.60
2017-09-19T21:47:35.527Z,10.60
2017-09-19T21:50:01.756Z,10.60
2017-09-19T21:52:27.980Z,10.60
2017-09-19T21:55:01.127Z,10.60
2017-09-19T21:57:27.342Z,10.60
2017-09-19T21:59:54.237Z,10.60
2017-09-19T22:02:20.415Z,10.60
2017-09-19T22:04:47.355Z,10.60
2017-09-19T22:07:13.567Z,10.60
2017-09-19T22:09:39.759Z,10.60
2017-09-19T22:12:05.938Z,10.60
2017-09-19T22:14:32.867Z,10.50
2017-09-19T22:16:59.059Z,10.50
2017-09-19T22:19:25.255Z,10.50
2017-09-19T22:21:51.457Z,10.50
2017-09-19T22:24:17.633Z,10.60
2017-09-19T22:26:43.815Z,10.50
2017-09-19T22:29:09.975Z,10.50
2017-09-19T22:31:36.167Z,10.50
2017-09-19T22:34:02.353Z,10.50
2017-09-19T22:36:28.563Z,10.50
2017-09-19T22:38:54.767Z,10.50
2017-09-19T22:41:21.734Z,10.50
2017-09-19T22:43:47.940Z,10.50
2017-09-19T22:46:14.864Z,10.50
2017-09-19T22:48:41.095Z,10.50
2017-09-19T22:51:07.284Z,10.50
2017-09-19T22:53:33.472Z,10.40
2017-09-19T22:56:00.409Z,10.30
2017-09-19T22:58:26.580Z,10.30
2017-09-19T23:00:52.804Z,10.30
2017-09-19T23:03:19.008Z,10.40
2017-09-19T23:05:45.946Z,10.40
2017-09-19T23:08:12.910Z,10.40
2017-09-19T23:10:39.106Z,10.40
2017-09-19T23:13:05.268Z,10.40
2017-09-19T23:15:31.482Z,10.50
2017-09-19T23:17:58.538Z,10.50
2017-09-19T23:20:24.749Z,10.50
2017-09-19T23:22:51.688Z,10.40
2017-09-19T23:25:17.934Z,10.40
2017-09-19T23:27:44.903Z,10.40
2017-09-19T23:30:11.123Z,10.40
2017-09-19T23:32:37.342Z,10.40
2017-09-19T23:35:04.273Z,10.30
2017-09-19T23:37:31.253Z,10.30
2017-09-19T23:39:57.424Z,10.30
2017-09-19T23:42:23.587Z,10.40
2017-09-19T23:44:50.512Z,10.20
2017-09-19T23:47:17.424Z,10.10
2017-09-19T23:49:43.604Z,10.10
2017-09-19T23:52:10.520Z,10.10
2017-09-19T23:54:36.690Z,10.10
2017-09-19T23:57:02.896Z,10.10
2017-09-19T23:59:29.787Z,9.90
